createdAt,value
2018-12-10T00:01:23.955Z,2.40
2018-12-10T00:03:52.908Z,2.30
2018-12-10T00:06:21.616Z,2.00
2018-12-10T00:08:53.818Z,2.23
2018-12-10T00:11:28.292Z,2.10
2018-12-10T00:13:57.040Z,2.30
2018-12-10T00:16:38.307Z,1.83
2018-12-10T00:19:10.879Z,2.10
2018-12-10T00:21:39.589Z,1.30
2018-12-10T00:24:08.280Z,1.07
2018-12-10T00:26:56.062Z,2.00
2018-12-10T00:29:24.798Z,1.77
2018-12-10T00:31:59.864Z,1.87
2018-12-10T00:34:28.676Z,1.43
2018-12-10T00:36:58.695Z,1.57
2018-12-10T00:39:27.640Z,1.80
2018-12-10T00:42:15.217Z,1.50
2018-12-10T00:44:43.915Z,1.63
2018-12-10T00:47:16.287Z,1.50
2018-12-10T00:49:44.999Z,1.40
2018-12-10T00:52:13.704Z,1.60
2018-12-10T00:54:48.680Z,1.73
2018-12-10T00:57:27.795Z,1.80
2018-12-10T01:00:11.017Z,1.80
2018-12-10T01:02:45.431Z,1.70
2018-12-10T01:05:14.195Z,1.67
2018-12-10T01:07:46.135Z,1.87
2018-12-10T01:10:14.966Z,1.90
2018-12-10T01:12:43.646Z,1.90
2018-12-10T01:15:12.447Z,1.23
2018-12-10T01:17:51.102Z,2.23
2018-12-10T01:20:19.817Z,1.10
2018-12-10T01:22:58.844Z,0.93
2018-12-10T01:25:39.815Z,1.20
2018-12-10T01:28:12.472Z,1.63
2018-12-10T01:30:41.223Z,1.20
2018-12-10T01:33:09.994Z,1.20
2018-12-10T01:35:38.683Z,1.50
2018-12-10T01:38:10.429Z,1.60
2018-12-10T01:40:39.191Z,1.50
2018-12-10T01:43:11.125Z,1.43
2018-12-10T01:45:49.504Z,1.40
2018-12-10T01:48:24.364Z,1.50
2018-12-10T01:50:53.168Z,2.07
2018-12-10T01:53:21.860Z,1.63
2018-12-10T01:55:50.564Z,1.80
2018-12-10T01:58:22.284Z,1.80
2018-12-10T02:00:51.049Z,1.90
2018-12-10T02:03:19.891Z,1.43
2018-12-10T02:05:48.575Z,2.37
2018-12-10T02:08:21.014Z,1.97
2018-12-10T02:10:49.779Z,1.80
2018-12-10T02:13:18.589Z,1.73
2018-12-10T02:15:59.924Z,2.00
2018-12-10T02:18:31.897Z,1.47
2018-12-10T02:21:00.697Z,1.80
2018-12-10T02:23:29.383Z,1.70
2018-12-10T02:25:58.155Z,1.87
2018-12-10T02:28:35.731Z,1.60
2018-12-10T02:31:08.161Z,1.33
2018-12-10T02:33:36.860Z,1.50
2018-12-10T02:36:05.560Z,1.63
2018-12-10T02:38:37.993Z,1.60
2018-12-10T02:41:06.705Z,1.77
2018-12-10T02:43:35.469Z,1.00
2018-12-10T02:46:04.235Z,1.90
2018-12-10T02:48:36.580Z,1.83
2018-12-10T02:51:05.404Z,1.60
2018-12-10T02:53:34.095Z,1.27
2018-12-10T02:56:02.787Z,1.60
2018-12-10T02:58:37.740Z,1.40
2018-12-10T03:01:06.475Z,1.40
2018-12-10T03:03:35.167Z,1.53
2018-12-10T03:06:07.324Z,1.30
2018-12-10T03:08:39.979Z,1.37
2018-12-10T03:11:08.682Z,1.33
2018-12-10T03:13:37.431Z,1.40
2018-12-10T03:16:06.196Z,1.30
2018-12-10T03:18:45.200Z,1.30
2018-12-10T03:21:19.764Z,1.50
2018-12-10T03:23:48.540Z,1.43
2018-12-10T03:26:17.325Z,1.80
2018-12-10T03:28:49.305Z,1.50
2018-12-10T03:31:17.993Z,1.30
2018-12-10T03:33:50.092Z,1.67
2018-12-10T03:36:30.820Z,1.20
2018-12-10T03:39:06.159Z,1.23
2018-12-10T03:41:34.895Z,1.43
2018-12-10T03:44:13.383Z,1.07
2018-12-10T03:46:42.218Z,1.60
2018-12-10T03:49:14.385Z,1.20
2018-12-10T03:51:43.127Z,1.27
2018-12-10T03:54:11.872Z,1.47
2018-12-10T03:56:40.771Z,0.93
2018-12-10T03:59:12.997Z,1.40
2018-12-10T04:01:41.931Z,0.77
2018-12-10T04:04:10.675Z,1.50
2018-12-10T04:06:39.439Z,1.37
2018-12-10T04:09:11.544Z,1.33
2018-12-10T04:11:40.283Z,1.50
2018-12-10T04:14:09.020Z,1.00
2018-12-10T04:16:37.855Z,0.87
2018-12-10T04:19:10.295Z,1.33
2018-12-10T04:21:39.201Z,0.83
2018-12-10T04:24:07.949Z,1.30
2018-12-10T04:26:36.648Z,1.30
2018-12-10T04:29:08.841Z,0.83
2018-12-10T04:31:37.653Z,1.40
2018-12-10T04:34:06.466Z,0.93
2018-12-10T04:36:47.969Z,0.83
2018-12-10T04:39:34.956Z,1.07
2018-12-10T04:42:09.974Z,0.83
2018-12-10T04:44:38.727Z,0.80
2018-12-10T04:47:19.768Z,1.07
2018-12-10T04:49:54.247Z,1.30
2018-12-10T04:52:22.991Z,1.47
2018-12-10T04:54:55.588Z,1.10
2018-12-10T04:57:27.376Z,1.00
2018-12-10T05:00:02.944Z,1.33
2018-12-10T05:02:31.680Z,1.53
2018-12-10T05:05:00.384Z,1.40
2018-12-10T05:07:32.483Z,1.37
2018-12-10T05:10:02.059Z,1.43
2018-12-10T05:12:30.939Z,1.27
2018-12-10T05:14:59.644Z,1.70
2018-12-10T05:17:31.868Z,1.97
2018-12-10T05:20:00.570Z,1.90
2018-12-10T05:22:29.384Z,1.60
2018-12-10T05:24:58.071Z,2.40
2018-12-10T05:27:32.949Z,1.63
2018-12-10T05:30:01.692Z,1.43
2018-12-10T05:32:30.448Z,1.80
2018-12-10T05:37:37.977Z,2.07
2018-12-10T05:40:06.824Z,1.60
2018-12-10T05:42:35.595Z,1.33
2018-12-10T05:45:04.756Z,2.47
2018-12-10T05:47:36.827Z,2.30
2018-12-10T05:50:06.432Z,1.27
2018-12-10T05:52:47.432Z,2.00
2018-12-10T05:55:19.563Z,1.73
2018-12-10T05:57:53.828Z,1.53
2018-12-10T06:00:41.086Z,2.00
2018-12-10T06:03:13.325Z,2.43
2018-12-10T06:05:42.071Z,2.00
2018-12-10T06:08:10.852Z,2.00
2018-12-10T06:10:39.623Z,2.07
2018-12-10T06:13:12.039Z,2.40
2018-12-10T06:15:40.727Z,1.60
2018-12-10T06:18:09.416Z,1.97
2018-12-10T06:20:38.212Z,2.27
2018-12-10T06:23:14.064Z,2.80
2018-12-10T06:25:42.781Z,1.87
2018-12-10T06:28:17.773Z,1.60
2018-12-10T06:30:48.461Z,2.03
2018-12-10T06:33:19.252Z,2.10
2018-12-10T06:35:55.581Z,2.10
2018-12-10T06:38:24.272Z,2.07
2018-12-10T06:40:53.034Z,1.93
2018-12-10T06:43:25.312Z,1.43
2018-12-10T06:45:54.015Z,2.13
2018-12-10T06:48:22.711Z,1.77
2018-12-10T06:50:51.415Z,2.03
2018-12-10T06:53:24.055Z,1.87
2018-12-10T06:55:52.800Z,2.13
2018-12-10T06:58:21.496Z,1.90
2018-12-10T07:00:50.373Z,3.37
2018-12-10T07:03:22.939Z,1.70
2018-12-10T07:05:52.058Z,1.80
2018-12-10T07:08:20.818Z,1.70
2018-12-10T07:10:49.576Z,1.50
2018-12-10T07:13:38.596Z,1.77
2018-12-10T07:16:07.370Z,1.70
2018-12-10T07:18:36.135Z,1.97
2018-12-10T07:21:11.252Z,1.30
2018-12-10T07:23:46.047Z,1.57
2018-12-10T07:26:14.819Z,1.40
2018-12-10T07:28:50.283Z,1.93
2018-12-10T07:31:18.970Z,1.50
2018-12-10T07:33:51.983Z,1.53
2018-12-10T07:36:20.827Z,1.43
2018-12-10T07:38:59.101Z,1.80
2018-12-10T07:41:28.027Z,1.70
2018-12-10T07:43:56.719Z,1.60
2018-12-10T07:46:37.826Z,2.03
2018-12-10T07:49:09.840Z,1.30
2018-12-10T07:51:42.483Z,1.70
2018-12-10T07:54:11.243Z,2.10
2018-12-10T07:56:42.951Z,1.17
2018-12-10T07:59:11.661Z,2.00
2018-12-10T08:01:45.135Z,1.70
2018-12-10T08:04:13.827Z,2.30
2018-12-10T08:06:58.709Z,2.07
2018-12-10T08:09:27.399Z,2.17
2018-12-10T08:11:59.919Z,1.73
2018-12-10T08:14:40.816Z,1.90
2018-12-10T08:17:09.559Z,1.80
2018-12-10T08:19:50.580Z,1.73
2018-12-10T08:22:23.193Z,2.00
2018-12-10T08:24:52.026Z,1.77
2018-12-10T08:27:20.723Z,1.67
2018-12-10T08:30:03.340Z,2.23
2018-12-10T08:32:36.115Z,1.50
2018-12-10T08:35:16.952Z,1.60
2018-12-10T08:37:45.643Z,1.20
2018-12-10T08:40:21.078Z,1.87
2018-12-10T08:42:55.792Z,1.30
2018-12-10T08:45:24.585Z,1.63
2018-12-10T08:47:53.282Z,1.43
2018-12-10T08:50:25.760Z,1.50
2018-12-10T08:53:02.242Z,1.73
2018-12-10T08:55:31.132Z,1.60
2018-12-10T08:57:59.827Z,1.23
2018-12-10T09:00:28.579Z,2.27
2018-12-10T09:03:01.136Z,1.37
2018-12-10T09:05:29.982Z,1.60
2018-12-10T09:07:58.816Z,1.20
2018-12-10T09:13:21.428Z,1.70
2018-12-10T09:15:50.191Z,1.53
2018-12-10T09:18:22.119Z,1.47
2018-12-10T09:20:50.808Z,1.40
2018-12-10T09:26:27.325Z,1.03
2018-12-10T09:28:56.091Z,1.13
2018-12-10T09:31:24.895Z,1.27
2018-12-10T09:33:57.505Z,1.20
2018-12-10T09:36:44.095Z,0.90
2018-12-10T09:39:23.204Z,0.93
2018-12-10T09:44:48.952Z,0.97
2018-12-10T09:47:17.646Z,0.90
2018-12-10T09:50:02.575Z,1.07
2018-12-10T09:52:34.967Z,1.07
2018-12-10T09:55:16.852Z,1.30
2018-12-10T09:57:51.148Z,0.93
2018-12-10T10:00:23.687Z,1.30
2018-12-10T10:02:56.314Z,0.97
2018-12-10T10:05:28.495Z,1.20
2018-12-10T10:08:09.120Z,1.00
2018-12-10T10:10:40.981Z,0.97
2018-12-10T10:13:09.675Z,1.47
2018-12-10T10:15:38.419Z,1.47
2018-12-10T10:18:10.804Z,1.40
2018-12-10T10:20:39.524Z,1.20
2018-12-10T10:23:08.365Z,1.33
2018-12-10T10:25:37.219Z,1.43
2018-12-10T10:28:09.502Z,1.43
2018-12-10T10:30:43.815Z,1.30
2018-12-10T10:33:08.908Z,1.47
2018-12-10T10:35:37.609Z,1.90
2018-12-10T10:38:10.180Z,1.40
2018-12-10T10:40:38.896Z,1.70
2018-12-10T10:43:07.595Z,1.60
2018-12-10T10:45:36.392Z,1.40
2018-12-10T10:48:08.654Z,1.83
2018-12-10T10:50:40.942Z,1.20
2018-12-10T10:53:09.631Z,1.43
2018-12-10T10:55:44.799Z,1.33
2018-12-10T10:58:32.379Z,1.80
2018-12-10T11:01:06.541Z,1.53
2018-12-10T11:03:41.035Z,1.77
2018-12-10T11:06:15.591Z,2.20
2018-12-10T11:08:54.355Z,1.70
2018-12-10T11:11:35.118Z,1.93
2018-12-10T11:14:11.457Z,1.90
2018-12-10T11:16:43.987Z,1.77
2018-12-10T11:19:12.784Z,1.20
2018-12-10T11:21:47.004Z,2.30
2018-12-10T11:24:28.388Z,1.90
2018-12-10T11:26:57.153Z,2.50
2018-12-10T11:29:37.924Z,1.83
2018-12-10T11:32:25.082Z,3.57
2018-12-10T11:37:52.908Z,2.37
2018-12-10T11:40:34.233Z,2.37
2018-12-10T11:43:11.539Z,2.07
2018-12-10T11:45:46.447Z,1.80
2018-12-10T11:48:34.203Z,1.90
2018-12-10T11:51:15.564Z,2.03
2018-12-10T11:53:56.695Z,1.90
2018-12-10T11:56:37.464Z,2.27
2018-12-10T11:59:09.667Z,1.73
2018-12-10T12:01:38.384Z,1.87
2018-12-10T12:04:10.924Z,2.67
2018-12-10T12:06:39.724Z,1.73
2018-12-10T12:09:08.417Z,1.53
2018-12-10T12:11:49.095Z,2.23
2018-12-10T12:14:17.907Z,1.23
2018-12-10T12:17:06.938Z,1.17
2018-12-10T12:19:52.311Z,0.70
2018-12-10T12:22:25.003Z,1.07
2018-12-10T12:24:53.784Z,1.00
2018-12-10T12:27:30.184Z,1.30
2018-12-10T12:29:58.887Z,1.20
2018-12-10T12:32:50.068Z,1.10
2018-12-10T12:35:18.819Z,1.37
2018-12-10T12:37:53.420Z,1.47
2018-12-10T12:40:35.728Z,1.30
2018-12-10T12:43:22.682Z,1.63
2018-12-10T12:45:51.448Z,1.13
2018-12-10T12:48:20.151Z,1.10
2018-12-10T12:50:54.929Z,1.10
2018-12-10T12:53:34.623Z,1.27
2018-12-10T12:56:16.917Z,1.20
2018-12-10T12:58:45.641Z,1.37
2018-12-10T13:01:14.543Z,1.10
2018-12-10T13:03:49.572Z,0.97
2018-12-10T13:06:18.280Z,0.97
2018-12-10T13:08:53.095Z,0.90
2018-12-10T13:11:21.804Z,0.80
2018-12-10T13:13:53.844Z,0.90
2018-12-10T13:19:31.855Z,1.00
2018-12-10T13:22:06.499Z,0.97
2018-12-10T13:24:38.612Z,1.23
2018-12-10T13:27:19.627Z,0.97
2018-12-10T13:29:52.225Z,1.10
2018-12-10T13:32:21.004Z,1.20
2018-12-10T13:34:49.700Z,1.40
2018-12-10T13:37:22.401Z,1.50
2018-12-10T13:39:51.104Z,1.30
2018-12-10T13:42:19.799Z,1.40
2018-12-10T13:44:48.599Z,1.90
2018-12-10T13:47:20.729Z,1.70
2018-12-10T13:49:56.982Z,1.93
2018-12-10T13:52:25.770Z,1.70
2018-12-10T13:54:54.516Z,1.90
2018-12-10T13:57:27.067Z,1.70
2018-12-10T13:59:55.764Z,2.67
2018-12-10T14:02:24.539Z,2.10
2018-12-10T14:05:02.128Z,2.00
2018-12-10T14:07:42.355Z,2.07
2018-12-10T14:10:14.917Z,1.50
2018-12-10T14:12:43.616Z,2.20
2018-12-10T14:15:12.365Z,1.67
2018-12-10T14:17:44.904Z,2.13
2018-12-10T14:20:20.129Z,1.93
2018-12-10T14:22:50.640Z,1.93
2018-12-10T14:25:24.887Z,2.07
2018-12-10T14:27:53.844Z,1.60
2018-12-10T14:30:32.935Z,1.80
2018-12-10T14:33:05.535Z,2.03
2018-12-10T14:35:37.624Z,1.70
2018-12-10T14:38:10.336Z,1.53
2018-12-10T14:40:39.144Z,1.13
2018-12-10T14:43:07.847Z,1.10
2018-12-10T14:45:41.772Z,1.30
2018-12-10T14:48:13.627Z,1.33
2018-12-10T14:50:42.333Z,1.43
2018-12-10T14:53:11.103Z,1.77
2018-12-10T14:55:39.891Z,1.83
2018-12-10T14:58:12.184Z,1.50
2018-12-10T15:00:47.030Z,1.50
2018-12-10T15:03:15.812Z,1.87
2018-12-10T15:05:44.628Z,2.07
2018-12-10T15:08:17.365Z,1.83
2018-12-10T15:11:05.033Z,1.50
2018-12-10T15:13:45.135Z,1.50
2018-12-10T15:16:14.867Z,1.10
2018-12-10T15:18:43.567Z,1.60
2018-12-10T15:21:12.292Z,1.30
2018-12-10T15:23:44.928Z,1.30
2018-12-10T15:26:13.707Z,1.17
2018-12-10T15:28:42.412Z,1.30
2018-12-10T15:31:29.529Z,0.80
2018-12-10T15:34:17.220Z,1.20
2018-12-10T15:36:46.164Z,1.27
2018-12-10T15:39:14.860Z,1.23
2018-12-10T15:41:43.640Z,1.43
2018-12-10T15:44:12.483Z,1.30
2018-12-10T15:46:41.195Z,1.33
2018-12-10T15:52:13.517Z,1.00
2018-12-10T15:54:43.219Z,0.80
2018-12-10T16:00:11.185Z,1.07
2018-12-10T16:02:44.640Z,1.47
2018-12-10T16:05:17.291Z,1.10
2018-12-10T16:07:46.018Z,1.00
2018-12-10T16:10:26.880Z,1.03
2018-12-10T16:13:01.300Z,1.20
2018-12-10T16:15:30.030Z,1.00
2018-12-10T16:17:58.815Z,1.40
2018-12-10T16:20:27.527Z,1.00
2018-12-10T16:22:59.702Z,1.57
2018-12-10T16:25:38.516Z,0.97
2018-12-10T16:28:07.316Z,1.33
2018-12-10T16:30:36.279Z,1.50
2018-12-10T16:33:09.428Z,1.40
2018-12-10T16:35:38.308Z,1.67
2018-12-10T16:38:07.031Z,1.40
2018-12-10T16:40:35.718Z,1.60
2018-12-10T16:43:23.082Z,1.67
2018-12-10T16:45:51.798Z,1.97
2018-12-10T16:48:20.508Z,1.57
2018-12-10T16:50:49.204Z,2.00
2018-12-10T16:53:21.392Z,1.70
2018-12-10T16:55:50.232Z,1.70
2018-12-10T16:58:19.011Z,1.70
2018-12-10T17:00:47.740Z,2.40
2018-12-10T17:03:20.023Z,2.00
2018-12-10T17:05:48.820Z,1.57
2018-12-10T17:08:17.523Z,1.80
2018-12-10T17:10:46.288Z,1.60
2018-12-10T17:13:18.635Z,1.80
2018-12-10T17:15:50.772Z,1.80
2018-12-10T17:18:32.787Z,1.43
2018-12-10T17:21:01.581Z,1.70
2018-12-10T17:23:33.971Z,1.73
2018-12-10T17:26:16.958Z,1.30
2018-12-10T17:28:52.415Z,1.90
2018-12-10T17:31:29.069Z,1.50
2018-12-10T17:34:01.220Z,1.33
2018-12-10T17:36:36.646Z,0.87
2018-12-10T17:42:05.280Z,0.83
2018-12-10T17:44:34.044Z,1.30
2018-12-10T17:47:10.487Z,1.50
2018-12-10T17:49:39.304Z,1.20
2018-12-10T17:52:11.324Z,1.40
2018-12-10T17:54:40.847Z,1.40
2018-12-10T17:57:09.847Z,1.57
2018-12-10T17:59:38.755Z,1.13
2018-12-10T18:02:13.275Z,1.40
2018-12-10T18:04:54.415Z,1.23
2018-12-10T18:10:16.420Z,1.17
2018-12-10T18:12:48.341Z,0.83
2018-12-10T18:15:19.199Z,1.20
2018-12-10T18:17:48.020Z,1.00
2018-12-10T18:20:16.803Z,0.70
2018-12-10T18:22:49.139Z,1.50
2018-12-10T18:25:18.935Z,1.10
2018-12-10T18:27:48.320Z,1.13
2018-12-10T18:30:17.349Z,0.90
2018-12-10T18:32:50.041Z,1.20
2018-12-10T18:35:18.783Z,1.50
2018-12-10T18:37:47.631Z,1.20
2018-12-10T18:40:16.347Z,1.00
2018-12-10T18:42:48.592Z,1.43
2018-12-10T18:45:27.783Z,1.50
2018-12-10T18:47:56.573Z,1.80
2018-12-10T18:50:31.192Z,1.00
2018-12-10T18:53:03.509Z,1.50
2018-12-10T18:55:32.291Z,1.57
2018-12-10T18:58:01.192Z,1.10
2018-12-10T19:00:30.195Z,1.20
2018-12-10T19:03:03.186Z,1.60
2018-12-10T19:05:32.283Z,1.43
2018-12-10T19:08:01.032Z,1.47
2018-12-10T19:10:29.732Z,1.47
2018-12-10T19:13:01.775Z,1.60
2018-12-10T19:15:30.499Z,1.60
2018-12-10T19:17:59.192Z,1.83
2018-12-10T19:20:27.990Z,1.90
2018-12-10T19:23:00.320Z,1.77
2018-12-10T19:25:29.032Z,1.70
2018-12-10T19:27:57.825Z,1.73
2018-12-10T19:30:26.635Z,1.60
2018-12-10T19:32:59.819Z,1.83
2018-12-10T19:35:28.508Z,2.00
2018-12-10T19:37:57.305Z,1.80
2018-12-10T19:40:26.208Z,1.90
2018-12-10T19:42:58.476Z,1.90
2018-12-10T19:45:30.436Z,1.67
2018-12-10T19:48:04.811Z,1.70
2018-12-10T19:50:33.547Z,2.17
2018-12-10T19:53:05.627Z,2.43
2018-12-10T19:55:36.498Z,2.70
2018-12-10T19:58:05.335Z,2.03
2018-12-10T20:00:34.171Z,2.77
2018-12-10T20:03:06.571Z,2.73
2018-12-10T20:05:52.156Z,2.33
2018-12-10T20:08:20.939Z,2.20
2018-12-10T20:10:53.339Z,2.53
2018-12-10T20:13:25.983Z,1.90
2018-12-10T20:15:54.680Z,2.40
2018-12-10T20:18:29.123Z,1.97
2018-12-10T20:21:10.040Z,2.53
2018-12-10T20:23:51.604Z,2.10
2018-12-10T20:26:20.504Z,2.07
2018-12-10T20:28:49.240Z,1.90
2018-12-10T20:31:18.028Z,1.83
2018-12-10T20:33:52.918Z,2.03
2018-12-10T20:36:40.371Z,1.97
2018-12-10T20:39:09.125Z,2.03
2018-12-10T20:41:37.822Z,1.70
2018-12-10T20:44:10.503Z,2.27
2018-12-10T20:46:49.076Z,2.20
2018-12-10T20:49:24.230Z,2.67
2018-12-10T20:52:00.976Z,2.57
2018-12-10T20:54:31.316Z,2.33
2018-12-10T20:57:07.995Z,3.30
2018-12-10T20:59:36.716Z,3.37
2018-12-10T21:02:09.020Z,3.87
2018-12-10T21:04:56.801Z,4.43
2018-12-10T21:07:29.158Z,4.00
2018-12-10T21:10:06.165Z,4.40
2018-12-10T21:12:47.264Z,3.50
2018-12-10T21:15:27.823Z,3.20
2018-12-10T21:17:56.538Z,2.63
2018-12-10T21:20:25.292Z,3.57
2018-12-10T21:22:57.257Z,3.03
2018-12-10T21:25:31.675Z,2.70
2018-12-10T21:28:00.436Z,2.43
2018-12-10T21:30:29.199Z,2.97
2018-12-10T21:33:04.067Z,2.27
2018-12-10T21:35:32.846Z,2.97
2018-12-10T21:38:01.627Z,2.67
2018-12-10T21:40:30.423Z,2.97
2018-12-10T21:43:11.831Z,3.00
2018-12-10T21:45:46.013Z,2.70
2018-12-10T21:48:14.723Z,2.70
2018-12-10T21:50:43.499Z,2.60
2018-12-10T21:53:15.424Z,2.30
2018-12-10T21:55:44.128Z,2.27
2018-12-10T21:58:13.823Z,1.97
2018-12-10T22:00:42.721Z,2.20
2018-12-10T22:03:15.055Z,2.20
2018-12-10T22:05:44.152Z,1.87
2018-12-10T22:08:12.924Z,1.80
2018-12-10T22:10:41.681Z,2.07
2018-12-10T22:13:14.380Z,1.90
2018-12-10T22:15:43.152Z,2.20
2018-12-10T22:18:11.857Z,1.93
2018-12-10T22:20:40.612Z,2.10
2018-12-10T22:23:12.365Z,2.33
2018-12-10T22:25:41.132Z,2.20
2018-12-10T22:28:09.832Z,2.17
2018-12-10T22:30:51.212Z,2.30
2018-12-10T22:33:34.084Z,2.00
2018-12-10T22:36:17.098Z,1.80
2018-12-10T22:38:48.848Z,1.90
2018-12-10T22:41:17.544Z,1.50
2018-12-10T22:43:50.168Z,1.73
2018-12-10T22:46:18.862Z,2.07
2018-12-10T22:48:47.603Z,2.30
2018-12-10T22:51:16.361Z,2.40
2018-12-10T22:53:48.948Z,2.77
2018-12-10T22:56:17.676Z,2.50
2018-12-10T22:58:46.359Z,2.60
2018-12-10T23:01:15.151Z,2.43
2018-12-10T23:03:47.495Z,2.70
2018-12-10T23:06:16.213Z,2.30
2018-12-10T23:08:44.967Z,2.20
2018-12-10T23:11:13.687Z,2.33
2018-12-10T23:16:48.672Z,1.80
2018-12-10T23:19:17.359Z,2.23
2018-12-10T23:21:46.072Z,1.90
2018-12-10T23:24:14.883Z,2.83
2018-12-10T23:26:49.668Z,2.53
2018-12-10T23:29:26.741Z,2.57
2018-12-10T23:32:01.371Z,2.50
2018-12-10T23:34:30.083Z,2.43
2018-12-10T23:36:58.779Z,2.70
2018-12-10T23:39:27.487Z,2.50
2018-12-10T23:41:57.180Z,1.83
2018-12-10T23:44:31.388Z,2.60
2018-12-10T23:47:00.124Z,2.73
2018-12-10T23:49:38.356Z,2.50
2018-12-10T23:52:07.152Z,2.70
2018-12-10T23:54:36.004Z,2.70
2018-12-10T23:57:04.791Z,2.33
2018-12-10T23:59:33.499Z,2.30
